sensor_id;sensor_type;location;lat;lon;timestamp;P1;durP1;ratioP1;P2;durP2;ratioP2
8574;SDS011;4325;42.520;27.448;2023-09-19T00:00:17;4.80;;;3.40;;
8574;SDS011;4325;42.520;27.448;2023-09-19T00:02:46;3.73;;;3.40;;
8574;SDS011;4325;42.520;27.448;2023-09-19T00:05:13;7.03;;;3.73;;
8574;SDS011;4325;42.520;27.448;2023-09-19T00:07:40;4.03;;;3.20;;
8574;SDS011;4325;42.520;27.448;2023-09-19T00:10:07;3.20;;;2.90;;
8574;SDS011;4325;42.520;27.448;2023-09-19T00:12:36;2.90;;;2.67;;
8574;SDS011;4325;42.520;27.448;2023-09-19T00:15:03;4.27;;;3.33;;
8574;SDS011;4325;42.520;27.448;2023-09-19T00:17:33;4.03;;;3.13;;
8574;SDS011;4325;42.520;27.448;2023-09-19T00:20:02;5.13;;;3.30;;
8574;SDS011;4325;42.520;27.448;2023-09-19T00:22:32;3.50;;;2.80;;
8574;SDS011;4325;42.520;27.448;2023-09-19T00:24:59;3.53;;;2.90;;
8574;SDS011;4325;42.520;27.448;2023-09-19T00:27:27;3.37;;;2.97;;
8574;SDS011;4325;42.520;27.448;2023-09-19T00:29:54;3.33;;;2.70;;
8574;SDS011;4325;42.520;27.448;2023-09-19T00:32:21;4.13;;;3.30;;
8574;SDS011;4325;42.520;27.448;2023-09-19T00:34:50;5.00;;;3.07;;
8574;SDS011;4325;42.520;27.448;2023-09-19T00:37:17;3.97;;;3.10;;
8574;SDS011;4325;42.520;27.448;2023-09-19T00:39:44;5.13;;;3.40;;
8574;SDS011;4325;42.520;27.448;2023-09-19T00:42:17;6.87;;;3.40;;
8574;SDS011;4325;42.520;27.448;2023-09-19T00:44:46;5.73;;;3.37;;
8574;SDS011;4325;42.520;27.448;2023-09-19T00:47:13;5.70;;;3.07;;
8574;SDS011;4325;42.520;27.448;2023-09-19T00:49:42;4.03;;;3.50;;
8574;SDS011;4325;42.520;27.448;2023-09-19T00:52:11;5.77;;;4.20;;
8574;SDS011;4325;42.520;27.448;2023-09-19T00:54:39;2.93;;;2.67;;
8574;SDS011;4325;42.520;27.448;2023-09-19T00:57:06;4.80;;;3.33;;
8574;SDS011;4325;42.520;27.448;2023-09-19T00:59:33;3.03;;;2.73;;
8574;SDS011;4325;42.520;27.448;2023-09-19T01:02:01;4.47;;;3.47;;
8574;SDS011;4325;42.520;27.448;2023-09-19T01:04:29;6.50;;;3.33;;
8574;SDS011;4325;42.520;27.448;2023-09-19T01:06:57;4.87;;;3.57;;
8574;SDS011;4325;42.520;27.448;2023-09-19T01:09:26;5.83;;;3.43;;
8574;SDS011;4325;42.520;27.448;2023-09-19T01:11:53;3.80;;;3.03;;
8574;SDS011;4325;42.520;27.448;2023-09-19T01:14:29;3.33;;;2.90;;
8574;SDS011;4325;42.520;27.448;2023-09-19T01:17:03;4.30;;;3.40;;
8574;SDS011;4325;42.520;27.448;2023-09-19T01:22:37;4.57;;;3.50;;
8574;SDS011;4325;42.520;27.448;2023-09-19T01:25:19;6.47;;;3.53;;
8574;SDS011;4325;42.520;27.448;2023-09-19T01:28:20;6.10;;;3.63;;
8574;SDS011;4325;42.520;27.448;2023-09-19T01:31:09;3.97;;;3.40;;
8574;SDS011;4325;42.520;27.448;2023-09-19T01:33:56;3.47;;;2.83;;
8574;SDS011;4325;42.520;27.448;2023-09-19T01:36:26;5.50;;;3.40;;
8574;SDS011;4325;42.520;27.448;2023-09-19T01:38:54;6.77;;;3.33;;
8574;SDS011;4325;42.520;27.448;2023-09-19T01:41:25;3.73;;;2.90;;
8574;SDS011;4325;42.520;27.448;2023-09-19T01:43:57;4.87;;;3.53;;
8574;SDS011;4325;42.520;27.448;2023-09-19T01:46:33;4.60;;;2.90;;
8574;SDS011;4325;42.520;27.448;2023-09-19T01:49:04;4.77;;;3.47;;
8574;SDS011;4325;42.520;27.448;2023-09-19T01:51:44;5.77;;;3.87;;
8574;SDS011;4325;42.520;27.448;2023-09-19T01:54:18;8.67;;;3.13;;
8574;SDS011;4325;42.520;27.448;2023-09-19T01:56:54;4.07;;;3.47;;
8574;SDS011;4325;42.520;27.448;2023-09-19T01:59:28;5.13;;;4.03;;
8574;SDS011;4325;42.520;27.448;2023-09-19T02:02:03;8.27;;;4.93;;
8574;SDS011;4325;42.520;27.448;2023-09-19T02:04:33;8.03;;;7.03;;
8574;SDS011;4325;42.520;27.448;2023-09-19T02:07:01;15.23;;;9.23;;
8574;SDS011;4325;42.520;27.448;2023-09-19T02:09:30;16.00;;;10.90;;
8574;SDS011;4325;42.520;27.448;2023-09-19T02:11:58;13.43;;;9.87;;
8574;SDS011;4325;42.520;27.448;2023-09-19T02:14:42;13.60;;;8.43;;
8574;SDS011;4325;42.520;27.448;2023-09-19T02:17:11;25.07;;;9.63;;
8574;SDS011;4325;42.520;27.448;2023-09-19T02:19:38;11.67;;;7.67;;
8574;SDS011;4325;42.520;27.448;2023-09-19T02:22:06;11.97;;;7.80;;
8574;SDS011;4325;42.520;27.448;2023-09-19T02:24:35;9.23;;;6.40;;
8574;SDS011;4325;42.520;27.448;2023-09-19T02:27:03;13.17;;;6.33;;
8574;SDS011;4325;42.520;27.448;2023-09-19T02:29:30;9.07;;;5.80;;
8574;SDS011;4325;42.520;27.448;2023-09-19T02:31:59;7.97;;;5.40;;
8574;SDS011;4325;42.520;27.448;2023-09-19T02:34:29;12.00;;;5.63;;
8574;SDS011;4325;42.520;27.448;2023-09-19T02:36:56;9.40;;;6.20;;
8574;SDS011;4325;42.520;27.448;2023-09-19T02:39:23;8.47;;;6.90;;
8574;SDS011;4325;42.520;27.448;2023-09-19T02:41:50;16.17;;;7.47;;
8574;SDS011;4325;42.520;27.448;2023-09-19T02:44:17;9.07;;;6.70;;
8574;SDS011;4325;42.520;27.448;2023-09-19T02:46:45;7.60;;;5.37;;
8574;SDS011;4325;42.520;27.448;2023-09-19T02:49:12;9.47;;;5.70;;
8574;SDS011;4325;42.520;27.448;2023-09-19T02:51:41;14.57;;;5.20;;
8574;SDS011;4325;42.520;27.448;2023-09-19T02:54:08;9.50;;;4.73;;
8574;SDS011;4325;42.520;27.448;2023-09-19T02:56:35;6.53;;;4.93;;
8574;SDS011;4325;42.520;27.448;2023-09-19T02:59:02;5.90;;;4.77;;
8574;SDS011;4325;42.520;27.448;2023-09-19T03:01:29;7.47;;;5.40;;
8574;SDS011;4325;42.520;27.448;2023-09-19T03:03:57;7.87;;;5.20;;
8574;SDS011;4325;42.520;27.448;2023-09-19T03:06:24;7.80;;;5.57;;
8574;SDS011;4325;42.520;27.448;2023-09-19T03:08:53;6.20;;;4.63;;
8574;SDS011;4325;42.520;27.448;2023-09-19T03:11:21;5.40;;;4.27;;
8574;SDS011;4325;42.520;27.448;2023-09-19T03:13:50;6.23;;;4.33;;
8574;SDS011;4325;42.520;27.448;2023-09-19T03:16:18;5.00;;;4.00;;
8574;SDS011;4325;42.520;27.448;2023-09-19T03:18:47;5.27;;;4.33;;
8574;SDS011;4325;42.520;27.448;2023-09-19T03:21:14;5.10;;;4.30;;
8574;SDS011;4325;42.520;27.448;2023-09-19T03:23:42;5.33;;;4.57;;
8574;SDS011;4325;42.520;27.448;2023-09-19T03:26:12;6.17;;;4.87;;
8574;SDS011;4325;42.520;27.448;2023-09-19T03:28:41;16.93;;;9.73;;
8574;SDS011;4325;42.520;27.448;2023-09-19T03:31:08;15.73;;;9.13;;
8574;SDS011;4325;42.520;27.448;2023-09-19T03:33:36;6.93;;;4.57;;
8574;SDS011;4325;42.520;27.448;2023-09-19T03:36:03;5.60;;;4.53;;
8574;SDS011;4325;42.520;27.448;2023-09-19T03:38:31;8.00;;;4.13;;
8574;SDS011;4325;42.520;27.448;2023-09-19T03:40:59;5.27;;;4.03;;
8574;SDS011;4325;42.520;27.448;2023-09-19T03:43:27;4.73;;;4.23;;
8574;SDS011;4325;42.520;27.448;2023-09-19T03:45:54;6.40;;;4.70;;
8574;SDS011;4325;42.520;27.448;2023-09-19T03:48:21;5.40;;;4.57;;
8574;SDS011;4325;42.520;27.448;2023-09-19T03:50:48;6.90;;;4.03;;
8574;SDS011;4325;42.520;27.448;2023-09-19T03:53:16;7.00;;;4.83;;
8574;SDS011;4325;42.520;27.448;2023-09-19T03:55:44;5.67;;;4.33;;
8574;SDS011;4325;42.520;27.448;2023-09-19T03:58:12;5.67;;;4.10;;
8574;SDS011;4325;42.520;27.448;2023-09-19T04:00:41;8.23;;;5.37;;
8574;SDS011;4325;42.520;27.448;2023-09-19T04:03:08;5.97;;;4.00;;
8574;SDS011;4325;42.520;27.448;2023-09-19T04:05:43;9.03;;;6.33;;
8574;SDS011;4325;42.520;27.448;2023-09-19T04:08:11;18.67;;;9.97;;
8574;SDS011;4325;42.520;27.448;2023-09-19T04:10:37;19.20;;;9.90;;
8574;SDS011;4325;42.520;27.448;2023-09-19T04:13:07;10.50;;;7.27;;
8574;SDS011;4325;42.520;27.448;2023-09-19T04:15:34;9.47;;;8.07;;
8574;SDS011;4325;42.520;27.448;2023-09-19T04:18:04;18.67;;;12.63;;
8574;SDS011;4325;42.520;27.448;2023-09-19T04:20:31;19.37;;;10.57;;
8574;SDS011;4325;42.520;27.448;2023-09-19T04:22:58;14.80;;;8.53;;
8574;SDS011;4325;42.520;27.448;2023-09-19T04:25:25;9.87;;;7.53;;
8574;SDS011;4325;42.520;27.448;2023-09-19T04:27:53;10.57;;;8.30;;
8574;SDS011;4325;42.520;27.448;2023-09-19T04:30:20;10.13;;;6.47;;
8574;SDS011;4325;42.520;27.448;2023-09-19T04:32:46;14.50;;;6.47;;
8574;SDS011;4325;42.520;27.448;2023-09-19T04:35:17;7.57;;;5.70;;
8574;SDS011;4325;42.520;27.448;2023-09-19T04:37:44;8.33;;;5.97;;
8574;SDS011;4325;42.520;27.448;2023-09-19T04:40:11;7.90;;;4.90;;
8574;SDS011;4325;42.520;27.448;2023-09-19T04:42:39;11.53;;;5.47;;
8574;SDS011;4325;42.520;27.448;2023-09-19T04:45:07;10.80;;;6.00;;
8574;SDS011;4325;42.520;27.448;2023-09-19T04:47:35;12.27;;;6.17;;
8574;SDS011;4325;42.520;27.448;2023-09-19T04:50:04;10.70;;;6.13;;
8574;SDS011;4325;42.520;27.448;2023-09-19T04:52:34;14.90;;;5.80;;
8574;SDS011;4325;42.520;27.448;2023-09-19T04:55:02;7.83;;;5.70;;
8574;SDS011;4325;42.520;27.448;2023-09-19T04:57:30;9.27;;;5.30;;
8574;SDS011;4325;42.520;27.448;2023-09-19T04:59:57;8.43;;;5.87;;
8574;SDS011;4325;42.520;27.448;2023-09-19T05:02:24;6.53;;;4.93;;
8574;SDS011;4325;42.520;27.448;2023-09-19T05:04:51;9.70;;;5.63;;
8574;SDS011;4325;42.520;27.448;2023-09-19T05:07:18;6.57;;;4.43;;
8574;SDS011;4325;42.520;27.448;2023-09-19T05:09:48;6.03;;;4.80;;
8574;SDS011;4325;42.520;27.448;2023-09-19T05:12:15;7.03;;;4.80;;
8574;SDS011;4325;42.520;27.448;2023-09-19T05:14:45;7.43;;;4.97;;
8574;SDS011;4325;42.520;27.448;2023-09-19T05:17:13;8.43;;;5.37;;
8574;SDS011;4325;42.520;27.448;2023-09-19T05:19:42;7.50;;;5.13;;
8574;SDS011;4325;42.520;27.448;2023-09-19T05:22:09;6.00;;;4.77;;
8574;SDS011;4325;42.520;27.448;2023-09-19T05:24:36;6.63;;;5.47;;
8574;SDS011;4325;42.520;27.448;2023-09-19T05:27:05;17.37;;;5.27;;
8574;SDS011;4325;42.520;27.448;2023-09-19T05:29:32;7.87;;;5.60;;
8574;SDS011;4325;42.520;27.448;2023-09-19T05:31:59;5.83;;;4.27;;
8574;SDS011;4325;42.520;27.448;2023-09-19T05:34:26;6.80;;;5.07;;
8574;SDS011;4325;42.520;27.448;2023-09-19T05:36:55;6.50;;;5.53;;
8574;SDS011;4325;42.520;27.448;2023-09-19T05:39:22;13.50;;;6.90;;
8574;SDS011;4325;42.520;27.448;2023-09-19T05:41:49;10.30;;;7.17;;
8574;SDS011;4325;42.520;27.448;2023-09-19T05:44:17;8.40;;;6.27;;
8574;SDS011;4325;42.520;27.448;2023-09-19T05:46:44;10.67;;;5.97;;
8574;SDS011;4325;42.520;27.448;2023-09-19T05:49:13;10.33;;;6.50;;
8574;SDS011;4325;42.520;27.448;2023-09-19T05:51:41;9.60;;;6.00;;
8574;SDS011;4325;42.520;27.448;2023-09-19T05:54:08;11.13;;;6.30;;
8574;SDS011;4325;42.520;27.448;2023-09-19T05:56:36;17.73;;;5.60;;
8574;SDS011;4325;42.520;27.448;2023-09-19T05:59:03;16.87;;;6.37;;
8574;SDS011;4325;42.520;27.448;2023-09-19T06:01:32;6.57;;;5.23;;
8574;SDS011;4325;42.520;27.448;2023-09-19T06:03:59;7.17;;;5.23;;
8574;SDS011;4325;42.520;27.448;2023-09-19T06:06:26;11.97;;;5.67;;
8574;SDS011;4325;42.520;27.448;2023-09-19T06:08:53;12.47;;;5.17;;
8574;SDS011;4325;42.520;27.448;2023-09-19T06:11:20;4.67;;;4.17;;
8574;SDS011;4325;42.520;27.448;2023-09-19T06:13:50;5.50;;;4.57;;
8574;SDS011;4325;42.520;27.448;2023-09-19T06:16:18;5.90;;;5.13;;
8574;SDS011;4325;42.520;27.448;2023-09-19T06:18:47;8.70;;;4.57;;
8574;SDS011;4325;42.520;27.448;2023-09-19T06:21:14;7.57;;;5.10;;
8574;SDS011;4325;42.520;27.448;2023-09-19T06:23:41;8.00;;;5.73;;
8574;SDS011;4325;42.520;27.448;2023-09-19T06:26:08;8.40;;;5.30;;
8574;SDS011;4325;42.520;27.448;2023-09-19T06:28:35;14.67;;;5.20;;
8574;SDS011;4325;42.520;27.448;2023-09-19T06:31:02;6.83;;;4.17;;
8574;SDS011;4325;42.520;27.448;2023-09-19T06:33:34;5.57;;;4.70;;
8574;SDS011;4325;42.520;27.448;2023-09-19T06:36:05;6.93;;;4.87;;
8574;SDS011;4325;42.520;27.448;2023-09-19T06:38:32;6.73;;;5.03;;
8574;SDS011;4325;42.520;27.448;2023-09-19T06:41:04;6.60;;;5.27;;
8574;SDS011;4325;42.520;27.448;2023-09-19T06:43:33;6.43;;;4.80;;
8574;SDS011;4325;42.520;27.448;2023-09-19T06:46:00;7.43;;;5.17;;
8574;SDS011;4325;42.520;27.448;2023-09-19T06:48:28;7.00;;;5.33;;
8574;SDS011;4325;42.520;27.448;2023-09-19T06:50:56;6.10;;;4.80;;
8574;SDS011;4325;42.520;27.448;2023-09-19T06:53:25;8.80;;;6.27;;
8574;SDS011;4325;42.520;27.448;2023-09-19T06:55:52;11.47;;;6.43;;
8574;SDS011;4325;42.520;27.448;2023-09-19T06:58:19;8.70;;;5.80;;
8574;SDS011;4325;42.520;27.448;2023-09-19T07:00:46;9.37;;;5.57;;
8574;SDS011;4325;42.520;27.448;2023-09-19T07:03:15;12.10;;;6.20;;
8574;SDS011;4325;42.520;27.448;2023-09-19T07:05:43;10.30;;;6.83;;
8574;SDS011;4325;42.520;27.448;2023-09-19T07:08:10;8.37;;;6.20;;
8574;SDS011;4325;42.520;27.448;2023-09-19T07:10:39;7.70;;;5.50;;
8574;SDS011;4325;42.520;27.448;2023-09-19T07:13:07;11.53;;;6.03;;
8574;SDS011;4325;42.520;27.448;2023-09-19T07:15:36;7.30;;;5.57;;
8574;SDS011;4325;42.520;27.448;2023-09-19T07:18:07;7.97;;;5.70;;
8574;SDS011;4325;42.520;27.448;2023-09-19T07:20:36;6.97;;;5.03;;
8574;SDS011;4325;42.520;27.448;2023-09-19T07:23:03;7.07;;;4.90;;
8574;SDS011;4325;42.520;27.448;2023-09-19T07:25:31;8.40;;;5.57;;
8574;SDS011;4325;42.520;27.448;2023-09-19T07:27:59;5.73;;;4.43;;
8574;SDS011;4325;42.520;27.448;2023-09-19T07:30:26;7.87;;;4.90;;
8574;SDS011;4325;42.520;27.448;2023-09-19T07:32:54;4.37;;;3.87;;
8574;SDS011;4325;42.520;27.448;2023-09-19T07:35:21;3.53;;;3.23;;
8574;SDS011;4325;42.520;27.448;2023-09-19T07:37:48;5.83;;;4.13;;
8574;SDS011;4325;42.520;27.448;2023-09-19T07:40:16;4.33;;;3.37;;
8574;SDS011;4325;42.520;27.448;2023-09-19T07:42:44;4.00;;;3.42;;
8574;SDS011;4325;42.520;27.448;2023-09-19T07:45:13;3.30;;;3.00;;
8574;SDS011;4325;42.520;27.448;2023-09-19T07:47:43;3.90;;;3.50;;
8574;SDS011;4325;42.520;27.448;2023-09-19T07:50:12;3.13;;;2.85;;
8574;SDS011;4325;42.520;27.448;2023-09-19T07:52:39;3.95;;;2.70;;
8574;SDS011;4325;42.520;27.448;2023-09-19T07:55:06;3.03;;;2.65;;
8574;SDS011;4325;42.520;27.448;2023-09-19T07:57:36;6.35;;;3.10;;
8574;SDS011;4325;42.520;27.448;2023-09-19T08:00:03;3.92;;;3.30;;
8574;SDS011;4325;42.520;27.448;2023-09-19T08:02:35;2.55;;;2.35;;
8574;SDS011;4325;42.520;27.448;2023-09-19T08:05:03;4.05;;;3.00;;
8574;SDS011;4325;42.520;27.448;2023-09-19T08:07:35;3.70;;;2.95;;
8574;SDS011;4325;42.520;27.448;2023-09-19T08:10:02;3.13;;;2.83;;
8574;SDS011;4325;42.520;27.448;2023-09-19T08:12:32;2.65;;;2.45;;
8574;SDS011;4325;42.520;27.448;2023-09-19T08:15:01;3.17;;;2.88;;
8574;SDS011;4325;42.520;27.448;2023-09-19T08:17:28;2.92;;;2.70;;
8574;SDS011;4325;42.520;27.448;2023-09-19T08:19:57;3.47;;;2.90;;
8574;SDS011;4325;42.520;27.448;2023-09-19T08:22:24;3.80;;;2.65;;
8574;SDS011;4325;42.520;27.448;2023-09-19T08:24:51;3.45;;;3.05;;
8574;SDS011;4325;42.520;27.448;2023-09-19T08:27:18;3.25;;;2.95;;
8574;SDS011;4325;42.520;27.448;2023-09-19T08:29:45;3.08;;;2.80;;
8574;SDS011;4325;42.520;27.448;2023-09-19T08:32:13;2.78;;;2.58;;
8574;SDS011;4325;42.520;27.448;2023-09-19T08:34:40;2.15;;;1.95;;
8574;SDS011;4325;42.520;27.448;2023-09-19T08:37:08;4.55;;;2.30;;
8574;SDS011;4325;42.520;27.448;2023-09-19T08:39:35;3.10;;;2.63;;
8574;SDS011;4325;42.520;27.448;2023-09-19T08:42:03;2.80;;;2.47;;
8574;SDS011;4325;42.520;27.448;2023-09-19T08:44:35;2.53;;;2.33;;
8574;SDS011;4325;42.520;27.448;2023-09-19T08:47:07;2.63;;;2.42;;
8574;SDS011;4325;42.520;27.448;2023-09-19T08:49:39;3.47;;;2.72;;
8574;SDS011;4325;42.520;27.448;2023-09-19T08:52:16;3.95;;;3.08;;
8574;SDS011;4325;42.520;27.448;2023-09-19T08:54:49;2.60;;;2.28;;
8574;SDS011;4325;42.520;27.448;2023-09-19T08:57:18;8.38;;;2.85;;
8574;SDS011;4325;42.520;27.448;2023-09-19T08:59:47;3.72;;;2.72;;
8574;SDS011;4325;42.520;27.448;2023-09-19T09:02:15;2.75;;;2.55;;
8574;SDS011;4325;42.520;27.448;2023-09-19T09:04:43;2.75;;;2.28;;
8574;SDS011;4325;42.520;27.448;2023-09-19T09:07:14;2.67;;;2.47;;
8574;SDS011;4325;42.520;27.448;2023-09-19T09:09:42;3.47;;;2.60;;
8574;SDS011;4325;42.520;27.448;2023-09-19T09:12:10;2.65;;;2.45;;
8574;SDS011;4325;42.520;27.448;2023-09-19T09:14:39;3.70;;;2.50;;
8574;SDS011;4325;42.520;27.448;2023-09-19T09:17:06;2.90;;;2.70;;
8574;SDS011;4325;42.520;27.448;2023-09-19T09:19:34;2.63;;;2.42;;
8574;SDS011;4325;42.520;27.448;2023-09-19T09:22:07;2.90;;;2.60;;
8574;SDS011;4325;42.520;27.448;2023-09-19T09:24:36;5.18;;;2.75;;
8574;SDS011;4325;42.520;27.448;2023-09-19T09:27:05;2.65;;;2.30;;
8574;SDS011;4325;42.520;27.448;2023-09-19T09:29:42;2.75;;;2.53;;
8574;SDS011;4325;42.520;27.448;2023-09-19T09:32:22;2.50;;;2.30;;
8574;SDS011;4325;42.520;27.448;2023-09-19T09:34:51;2.28;;;2.05;;
8574;SDS011;4325;42.520;27.448;2023-09-19T09:37:19;3.00;;;2.60;;
8574;SDS011;4325;42.520;27.448;2023-09-19T09:39:53;3.13;;;2.53;;
8574;SDS011;4325;42.520;27.448;2023-09-19T09:42:31;2.47;;;2.28;;
8574;SDS011;4325;42.520;27.448;2023-09-19T09:45:12;2.35;;;2.15;;
8574;SDS011;4325;42.520;27.448;2023-09-19T09:47:41;10.50;;;2.92;;
8574;SDS011;4325;42.520;27.448;2023-09-19T09:50:22;3.80;;;2.25;;
8574;SDS011;4325;42.520;27.448;2023-09-19T09:52:54;2.40;;;2.20;;
8574;SDS011;4325;42.520;27.448;2023-09-19T09:55:34;4.07;;;2.47;;
8574;SDS011;4325;42.520;27.448;2023-09-19T09:58:24;2.35;;;2.15;;
8574;SDS011;4325;42.520;27.448;2023-09-19T10:00:54;2.60;;;2.40;;
8574;SDS011;4325;42.520;27.448;2023-09-19T10:03:24;2.78;;;2.58;;
8574;SDS011;4325;42.520;27.448;2023-09-19T10:05:59;2.78;;;2.58;;
8574;SDS011;4325;42.520;27.448;2023-09-19T10:08:34;3.13;;;2.72;;
8574;SDS011;4325;42.520;27.448;2023-09-19T10:11:14;3.65;;;2.35;;
8574;SDS011;4325;42.520;27.448;2023-09-19T10:13:43;3.50;;;2.67;;
8574;SDS011;4325;42.520;27.448;2023-09-19T10:16:12;4.22;;;2.30;;
8574;SDS011;4325;42.520;27.448;2023-09-19T10:18:40;8.63;;;2.50;;
8574;SDS011;4325;42.520;27.448;2023-09-19T10:21:09;3.05;;;2.40;;
8574;SDS011;4325;42.520;27.448;2023-09-19T10:23:37;2.70;;;2.35;;
8574;SDS011;4325;42.520;27.448;2023-09-19T10:26:08;5.95;;;2.40;;
8574;SDS011;4325;42.520;27.448;2023-09-19T10:28:37;2.10;;;2.00;;
8574;SDS011;4325;42.520;27.448;2023-09-19T10:31:05;2.47;;;2.28;;
8574;SDS011;4325;42.520;27.448;2023-09-19T10:33:35;5.20;;;2.22;;
8574;SDS011;4325;42.520;27.448;2023-09-19T10:36:04;2.50;;;2.30;;
8574;SDS011;4325;42.520;27.448;2023-09-19T10:38:31;2.45;;;2.25;;
8574;SDS011;4325;42.520;27.448;2023-09-19T10:41:01;3.10;;;2.70;;
8574;SDS011;4325;42.520;27.448;2023-09-19T10:43:29;3.25;;;2.65;;
8574;SDS011;4325;42.520;27.448;2023-09-19T10:46:01;4.20;;;2.70;;
8574;SDS011;4325;42.520;27.448;2023-09-19T10:48:30;4.43;;;2.30;;
8574;SDS011;4325;42.520;27.448;2023-09-19T10:51:05;4.88;;;2.20;;
8574;SDS011;4325;42.520;27.448;2023-09-19T10:53:41;5.18;;;2.80;;
8574;SDS011;4325;42.520;27.448;2023-09-19T10:56:13;2.97;;;2.60;;
8574;SDS011;4325;42.520;27.448;2023-09-19T10:58:45;3.20;;;2.70;;
8574;SDS011;4325;42.520;27.448;2023-09-19T11:01:14;3.15;;;2.45;;
8574;SDS011;4325;42.520;27.448;2023-09-19T11:03:43;4.32;;;2.50;;
8574;SDS011;4325;42.520;27.448;2023-09-19T11:06:14;2.97;;;2.60;;
8574;SDS011;4325;42.520;27.448;2023-09-19T11:11:46;3.13;;;2.53;;
8574;SDS011;4325;42.520;27.448;2023-09-19T11:14:30;3.28;;;2.50;;
8574;SDS011;4325;42.520;27.448;2023-09-19T11:20:23;2.20;;;2.00;;
8574;SDS011;4325;42.520;27.448;2023-09-19T11:25:50;2.72;;;2.20;;
8574;SDS011;4325;42.520;27.448;2023-09-19T11:28:32;3.35;;;2.72;;
8574;SDS011;4325;42.520;27.448;2023-09-19T11:40:44;2.30;;;2.08;;
8574;SDS011;4325;42.520;27.448;2023-09-19T11:43:30;5.88;;;2.55;;
8574;SDS011;4325;42.520;27.448;2023-09-19T11:46:05;3.50;;;2.70;;
8574;SDS011;4325;42.520;27.448;2023-09-19T11:48:32;3.33;;;2.60;;
8574;SDS011;4325;42.520;27.448;2023-09-19T11:51:09;2.83;;;2.55;;
8574;SDS011;4325;42.520;27.448;2023-09-19T11:53:45;3.00;;;2.53;;
8574;SDS011;4325;42.520;27.448;2023-09-19T11:56:15;2.42;;;2.22;;
8574;SDS011;4325;42.520;27.448;2023-09-19T11:58:43;2.92;;;2.22;;
8574;SDS011;4325;42.520;27.448;2023-09-19T12:01:12;3.05;;;2.05;;
8574;SDS011;4325;42.520;27.448;2023-09-19T12:03:46;3.53;;;2.35;;
8574;SDS011;4325;42.520;27.448;2023-09-19T12:06:14;2.50;;;2.30;;
8574;SDS011;4325;42.520;27.448;2023-09-19T12:08:43;2.53;;;2.13;;
8574;SDS011;4325;42.520;27.448;2023-09-19T12:11:13;3.20;;;2.50;;
8574;SDS011;4325;42.520;27.448;2023-09-19T12:13:42;2.30;;;1.98;;
8574;SDS011;4325;42.520;27.448;2023-09-19T12:16:14;2.67;;;2.28;;
8574;SDS011;4325;42.520;27.448;2023-09-19T12:18:42;3.53;;;2.38;;
8574;SDS011;4325;42.520;27.448;2023-09-19T12:21:24;2.92;;;2.60;;
8574;SDS011;4325;42.520;27.448;2023-09-19T12:24:05;3.28;;;2.58;;
8574;SDS011;4325;42.520;27.448;2023-09-19T12:26:40;2.47;;;2.28;;
8574;SDS011;4325;42.520;27.448;2023-09-19T12:29:12;2.25;;;2.05;;
8574;SDS011;4325;42.520;27.448;2023-09-19T12:31:52;2.63;;;2.13;;
8574;SDS011;4325;42.520;27.448;2023-09-19T12:34:24;6.20;;;2.40;;
8574;SDS011;4325;42.520;27.448;2023-09-19T12:37:06;2.60;;;2.40;;
8574;SDS011;4325;42.520;27.448;2023-09-19T12:39:38;2.60;;;2.33;;
8574;SDS011;4325;42.520;27.448;2023-09-19T12:42:08;3.67;;;2.20;;
8574;SDS011;4325;42.520;27.448;2023-09-19T12:44:40;3.67;;;2.47;;
8574;SDS011;4325;42.520;27.448;2023-09-19T12:47:09;6.95;;;3.00;;
8574;SDS011;4325;42.520;27.448;2023-09-19T12:52:38;3.78;;;2.88;;
8574;SDS011;4325;42.520;27.448;2023-09-19T12:55:07;2.40;;;2.20;;
8574;SDS011;4325;42.520;27.448;2023-09-19T12:57:36;12.23;;;2.72;;
8574;SDS011;4325;42.520;27.448;2023-09-19T13:00:04;3.50;;;2.38;;
8574;SDS011;4325;42.520;27.448;2023-09-19T13:02:36;3.38;;;2.45;;
8574;SDS011;4325;42.520;27.448;2023-09-19T13:05:03;2.65;;;2.45;;
8574;SDS011;4325;42.520;27.448;2023-09-19T13:07:42;3.08;;;2.67;;
8574;SDS011;4325;42.520;27.448;2023-09-19T13:10:13;3.20;;;2.60;;
8574;SDS011;4325;42.520;27.448;2023-09-19T13:12:42;4.47;;;2.30;;
8574;SDS011;4325;42.520;27.448;2023-09-19T13:15:13;8.23;;;2.88;;
8574;SDS011;4325;42.520;27.448;2023-09-19T13:17:44;3.22;;;2.33;;
8574;SDS011;4325;42.520;27.448;2023-09-19T13:20:22;2.70;;;2.47;;
8574;SDS011;4325;42.520;27.448;2023-09-19T13:22:58;6.13;;;2.53;;
8574;SDS011;4325;42.520;27.448;2023-09-19T13:25:33;2.67;;;2.45;;
8574;SDS011;4325;42.520;27.448;2023-09-19T13:28:00;5.05;;;2.58;;
8574;SDS011;4325;42.520;27.448;2023-09-19T13:30:29;2.97;;;2.45;;
8574;SDS011;4325;42.520;27.448;2023-09-19T13:33:06;4.22;;;2.80;;
8574;SDS011;4325;42.520;27.448;2023-09-19T13:35:34;2.20;;;2.00;;
8574;SDS011;4325;42.520;27.448;2023-09-19T13:38:02;4.65;;;2.40;;
8574;SDS011;4325;42.520;27.448;2023-09-19T13:40:33;3.85;;;2.55;;
8574;SDS011;4325;42.520;27.448;2023-09-19T13:43:00;3.55;;;2.30;;
8574;SDS011;4325;42.520;27.448;2023-09-19T13:45:27;2.45;;;2.25;;
8574;SDS011;4325;42.520;27.448;2023-09-19T13:47:55;3.35;;;2.50;;
8574;SDS011;4325;42.520;27.448;2023-09-19T13:50:22;4.30;;;2.60;;
8574;SDS011;4325;42.520;27.448;2023-09-19T13:52:50;5.30;;;3.13;;
8574;SDS011;4325;42.520;27.448;2023-09-19T13:55:18;15.80;;;2.80;;
8574;SDS011;4325;42.520;27.448;2023-09-19T13:57:47;5.68;;;2.83;;
8574;SDS011;4325;42.520;27.448;2023-09-19T14:00:15;2.50;;;2.30;;
8574;SDS011;4325;42.520;27.448;2023-09-19T14:02:43;7.20;;;2.85;;
8574;SDS011;4325;42.520;27.448;2023-09-19T14:05:11;4.70;;;3.00;;
8574;SDS011;4325;42.520;27.448;2023-09-19T14:07:40;3.97;;;2.83;;
8574;SDS011;4325;42.520;27.448;2023-09-19T14:10:07;2.77;;;2.57;;
8574;SDS011;4325;42.520;27.448;2023-09-19T14:12:35;2.73;;;2.50;;
8574;SDS011;4325;42.520;27.448;2023-09-19T14:15:04;4.90;;;3.07;;
8574;SDS011;4325;42.520;27.448;2023-09-19T14:17:32;4.73;;;3.00;;
8574;SDS011;4325;42.520;27.448;2023-09-19T14:19:59;3.30;;;3.00;;
8574;SDS011;4325;42.520;27.448;2023-09-19T14:22:26;3.57;;;3.27;;
8574;SDS011;4325;42.520;27.448;2023-09-19T14:24:53;7.80;;;3.03;;
8574;SDS011;4325;42.520;27.448;2023-09-19T14:27:20;4.03;;;3.17;;
8574;SDS011;4325;42.520;27.448;2023-09-19T14:29:47;3.67;;;2.93;;
8574;SDS011;4325;42.520;27.448;2023-09-19T14:32:15;2.87;;;2.67;;
8574;SDS011;4325;42.520;27.448;2023-09-19T14:34:42;8.37;;;2.77;;
8574;SDS011;4325;42.520;27.448;2023-09-19T14:37:09;3.03;;;2.70;;
8574;SDS011;4325;42.520;27.448;2023-09-19T14:39:37;3.53;;;2.87;;
8574;SDS011;4325;42.520;27.448;2023-09-19T14:42:05;13.83;;;2.63;;
8574;SDS011;4325;42.520;27.448;2023-09-19T14:44:32;3.10;;;2.80;;
8574;SDS011;4325;42.520;27.448;2023-09-19T14:47:00;3.20;;;2.90;;
8574;SDS011;4325;42.520;27.448;2023-09-19T14:49:28;3.13;;;2.83;;
8574;SDS011;4325;42.520;27.448;2023-09-19T14:51:55;3.30;;;2.40;;
8574;SDS011;4325;42.520;27.448;2023-09-19T14:54:23;2.50;;;2.30;;
8574;SDS011;4325;42.520;27.448;2023-09-19T14:56:50;3.37;;;2.80;;
8574;SDS011;4325;42.520;27.448;2023-09-19T14:59:29;5.60;;;3.10;;
8574;SDS011;4325;42.520;27.448;2023-09-19T15:01:56;2.63;;;2.43;;
8574;SDS011;4325;42.520;27.448;2023-09-19T15:04:23;5.23;;;2.53;;
8574;SDS011;4325;42.520;27.448;2023-09-19T15:06:51;4.40;;;3.10;;
8574;SDS011;4325;42.520;27.448;2023-09-19T15:09:20;3.80;;;3.10;;
8574;SDS011;4325;42.520;27.448;2023-09-19T15:11:49;3.17;;;2.87;;
8574;SDS011;4325;42.520;27.448;2023-09-19T15:14:17;2.97;;;2.70;;
8574;SDS011;4325;42.520;27.448;2023-09-19T15:16:44;4.30;;;3.13;;
8574;SDS011;4325;42.520;27.448;2023-09-19T15:19:11;3.40;;;2.50;;
8574;SDS011;4325;42.520;27.448;2023-09-19T15:21:38;3.57;;;3.27;;
8574;SDS011;4325;42.520;27.448;2023-09-19T15:24:07;3.50;;;2.87;;
8574;SDS011;4325;42.520;27.448;2023-09-19T15:26:35;3.13;;;2.77;;
8574;SDS011;4325;42.520;27.448;2023-09-19T15:29:04;4.00;;;2.97;;
8574;SDS011;4325;42.520;27.448;2023-09-19T15:31:31;4.40;;;3.60;;
8574;SDS011;4325;42.520;27.448;2023-09-19T15:33:58;4.13;;;3.03;;
8574;SDS011;4325;42.520;27.448;2023-09-19T15:36:25;3.27;;;2.97;;
8574;SDS011;4325;42.520;27.448;2023-09-19T15:38:56;4.37;;;2.80;;